Time;durP1;ratioP1;P1;durP2;ratioP2;P2;SDS_P1;SDS_P2;PMS_P1;PMS_P2;Temp;Humidity;BMP_temperature;BMP_pressure;BME280_temperature;BME280_humidity;BME280_pressure;Samples;Min_cycle;Max_cycle;Signal;HPM_P1;HPM_P2
2022/01/01 00:01:56;;;;;;;36.33;22.90;;;;;;;7.23;94.13;95326.69;5114018;28;20444;-79
2022/01/01 00:04:23;;;;;;;31.83;19.47;;;;;;;7.24;94.44;95333.59;5113622;28;20448;-78
2022/01/01 00:06:50;;;;;;;52.27;24.03;;;;;;;7.24;94.31;95336.22;5113707;28;20456;-79
2022/01/01 00:09:17;;;;;;;32.83;22.30;;;;;;;7.25;93.07;95341.34;5113235;28;20485;-78
2022/01/01 00:11:44;;;;;;;39.63;21.27;;;;;;;7.26;93.38;95336.97;5061124;28;20818;-78
2022/01/01 00:14:10;;;;;;;23.77;17.13;;;;;;;7.19;93.04;95339.09;5113655;28;20461;-78
2022/01/01 00:16:37;;;;;;;31.60;19.50;;;;;;;7.19;93.04;95336.50;5113477;28;20443;-79
2022/01/01 00:19:06;;;;;;;27.67;18.47;;;;;;;7.16;93.42;95328.84;5113661;28;20532;-78
2022/01/01 00:21:33;;;;;;;48.03;28.20;;;;;;;7.13;92.66;95334.28;5113794;28;20540;-78
2022/01/01 00:23:59;;;;;;;49.57;27.90;;;;;;;7.10;92.72;95339.69;5078043;28;20466;-79
2022/01/01 00:26:26;;;;;;;38.70;25.00;;;;;;;7.03;92.18;95341.03;5113350;28;20797;-79
2022/01/01 00:28:53;;;;;;;36.07;25.37;;;;;;;6.99;92.05;95329.97;5113491;28;20491;-79
2022/01/01 00:31:20;;;;;;;47.67;27.30;;;;;;;6.99;92.36;95326.50;5113309;28;20452;-78
2022/01/01 00:33:47;;;;;;;50.23;32.50;;;;;;;6.96;91.90;95329.31;5113443;28;20506;-79
2022/01/01 00:36:15;;;;;;;43.50;30.57;;;;;;;6.94;91.61;95331.16;5113020;28;20944;-78
2022/01/01 00:38:42;;;;;;;42.90;26.83;;;;;;;6.90;91.22;95324.47;5113378;28;20444;-77
2022/01/01 00:41:09;;;;;;;37.60;25.07;;;;;;;6.88;91.24;95321.13;5113464;28;20446;-78
2022/01/01 00:43:36;;;;;;;32.53;21.17;;;;;;;6.86;91.48;95320.38;5113625;28;20936;-78
2022/01/01 00:46:03;;;;;;;30.80;19.13;;;;;;;6.83;91.92;95324.84;5113062;28;20448;-80
2022/01/01 00:48:30;;;;;;;34.17;20.13;;;;;;;6.84;92.56;95317.88;5113129;28;20582;-80
2022/01/01 00:50:57;;;;;;;26.40;16.83;;;;;;;6.84;92.28;95316.09;5114433;28;20468;-79
2022/01/01 00:53:25;;;;;;;25.67;16.43;;;;;;;6.85;93.31;95319.53;5117388;28;20444;-79
2022/01/01 00:55:52;;;;;;;26.13;17.87;;;;;;;6.84;93.73;95321.31;5117196;28;20829;-79
2022/01/01 00:58:19;;;;;;;35.70;24.70;;;;;;;6.84;93.88;95305.66;5116993;28;20452;-78
2022/01/01 01:00:46;;;;;;;44.43;26.33;;;;;;;6.83;93.88;95311.81;5117165;28;20950;-78
2022/01/01 01:03:15;;;;;;;51.63;28.73;;;;;;;6.83;92.99;95304.00;5117145;28;20445;-78
2022/01/01 01:05:45;;;;;;;37.03;22.03;;;;;;;6.83;93.37;95293.56;5117082;28;20796;-78
2022/01/01 01:08:13;;;;;;;31.30;20.17;;;;;;;6.83;93.71;95284.91;5116034;28;20447;-78
2022/01/01 01:10:44;;;;;;;24.40;16.60;;;;;;;6.80;93.89;95285.94;5116871;28;20655;-78
2022/01/01 01:13:13;;;;;;;19.63;14.97;;;;;;;6.79;93.84;95279.03;5117051;28;20470;-79
2022/01/01 01:15:40;;;;;;;23.13;14.13;;;;;;;6.77;93.52;95280.91;5117115;28;20952;-80
2022/01/01 01:18:07;;;;;;;19.93;13.23;;;;;;;6.78;93.55;95273.94;5116526;28;20937;-78
2022/01/01 01:20:34;;;;;;;18.80;13.53;;;;;;;6.79;93.21;95271.22;5116579;28;20540;-77
2022/01/01 01:23:01;;;;;;;16.50;11.93;;;;;;;6.80;93.38;95278.13;5116909;28;20446;-78
2022/01/01 01:25:31;;;;;;;20.43;12.60;;;;;;;6.78;92.75;95281.75;5081023;28;20455;-78
2022/01/01 01:28:07;;;;;;;26.10;17.80;;;;;;;6.78;93.46;95295.63;5116748;28;20536;-78
2022/01/01 01:30:34;;;;;;;31.23;18.77;;;;;;;6.75;93.55;95279.34;5116325;28;20791;-78
2022/01/01 01:33:01;;;;;;;31.80;17.63;;;;;;;6.74;93.57;95275.06;5116804;28;20456;-78
2022/01/01 01:35:28;;;;;;;34.23;22.40;;;;;;;6.72;93.80;95284.75;5116482;28;20447;-78
2022/01/01 01:37:55;;;;;;;32.00;21.27;;;;;;;6.62;94.13;95294.06;5116620;28;20441;-80
2022/01/01 01:40:23;;;;;;;37.77;21.37;;;;;;;6.62;94.37;95297.50;5116209;28;20444;-78
2022/01/01 01:42:50;;;;;;;35.93;19.67;;;;;;;6.62;94.25;95310.56;5116526;28;20530;-78
2022/01/01 01:45:21;;;;;;;32.10;21.20;;;;;;;6.57;93.79;95302.19;5116369;28;20451;-79
2022/01/01 01:47:49;;;;;;;34.93;21.73;;;;;;;6.58;94.03;95314.28;5116398;28;20463;-78
2022/01/01 01:50:18;;;;;;;39.17;22.30;;;;;;;6.58;93.31;95318.66;5116103;28;20483;-78
2022/01/01 01:52:48;;;;;;;34.93;23.73;;;;;;;6.49;93.67;95317.47;5115954;28;20451;-78
2022/01/01 01:55:15;;;;;;;31.77;21.93;;;;;;;6.49;93.20;95317.47;5115780;28;20480;-78
2022/01/01 01:57:43;;;;;;;19.57;14.73;;;;;;;6.48;94.06;95310.59;5115884;28;21006;-79
2022/01/01 02:00:25;;;;;;;22.10;15.17;;;;;;;6.43;93.63;95325.69;5115565;28;20979;-79
2022/01/01 02:02:53;;;;;;;14.50;11.60;;;;;;;6.42;93.73;95309.22;5115219;28;20802;-78
2022/01/01 02:05:20;;;;;;;17.10;11.80;;;;;;;6.41;93.70;95314.53;5063087;28;20447;-79
2022/01/01 02:07:49;;;;;;;19.83;12.60;;;;;;;6.40;92.72;95305.88;5115768;28;20441;-79
2022/01/01 02:10:16;;;;;;;24.83;15.00;;;;;;;6.34;93.61;95300.16;5115914;28;20834;-78
2022/01/01 02:12:48;;;;;;;21.40;14.83;;;;;;;6.32;93.62;95289.84;5115549;28;20445;-78
2022/01/01 02:15:38;;;;;;;18.67;13.30;;;;;;;6.32;93.38;95287.22;5115599;28;20532;-79
2022/01/01 02:18:06;;;;;;;15.40;11.17;;;;;;;6.34;93.52;95287.97;5115566;28;20790;-78
2022/01/01 02:20:34;;;;;;;17.43;11.40;;;;;;;6.33;93.35;95288.91;5115208;28;20444;-79
2022/01/01 02:23:01;;;;;;;16.47;11.23;;;;;;;6.31;94.29;95290.75;5115517;28;20451;-78
2022/01/01 02:25:30;;;;;;;14.97;10.10;;;;;;;6.32;94.61;95271.59;5079905;28;20441;-78
2022/01/01 02:27:57;;;;;;;12.20;9.40;;;;;;;6.33;94.70;95280.25;5115563;28;20450;-78
2022/01/01 02:30:24;;;;;;;14.23;9.97;;;;;;;6.31;95.06;95272.53;5115043;28;20492;-78
2022/01/01 02:32:51;;;;;;;14.17;10.13;;;;;;;6.20;94.87;95262.78;5115687;28;20539;-78
2022/01/01 02:35:19;;;;;;;13.90;10.30;;;;;;;6.20;95.13;95273.19;5115031;28;20444;-79
2022/01/01 02:37:47;;;;;;;10.70;9.47;;;;;;;6.18;95.44;95269.84;5115040;28;20444;-78
2022/01/01 02:40:15;;;;;;;16.20;10.47;;;;;;;6.21;96.10;95267.06;5078979;28;20449;-78
2022/01/01 02:42:43;;;;;;;14.50;9.97;;;;;;;6.24;96.33;95271.25;5114640;28;20932;-78
2022/01/01 02:45:11;;;;;;;16.20;10.50;;;;;;;6.27;96.19;95259.78;5114963;28;20448;-79
2022/01/01 02:47:38;;;;;;;15.80;10.67;;;;;;;6.25;96.12;95266.88;5115208;28;20465;-78
2022/01/01 02:50:06;;;;;;;23.30;11.47;;;;;;;6.22;95.99;95268.72;5114994;28;20480;-79
2022/01/01 02:52:33;;;;;;;15.10;12.23;;;;;;;6.12;96.60;95275.44;5114790;28;20451;-79
2022/01/01 02:55:01;;;;;;;16.20;12.70;;;;;;;6.12;96.61;95285.88;5114484;28;20548;-79
2022/01/01 02:57:28;;;;;;;13.57;11.30;;;;;;;6.16;96.69;95271.72;5114777;28;21238;-79
2022/01/01 02:59:55;;;;;;;17.70;13.10;;;;;;;6.18;96.51;95266.41;5062178;28;20439;-78
2022/01/01 03:02:22;;;;;;;20.70;14.23;;;;;;;6.17;95.86;95264.75;5114911;28;20440;-78
2022/01/01 03:04:49;;;;;;;23.87;14.47;;;;;;;6.19;95.87;95268.91;5114761;28;20792;-78
2022/01/01 03:07:16;;;;;;;21.00;14.33;;;;;;;6.21;95.04;95274.88;5114270;28;20452;-78
2022/01/01 03:09:43;;;;;;;19.03;14.10;;;;;;;6.21;94.77;95261.00;5114299;28;20486;-79
2022/01/01 03:12:15;;;;;;;19.40;13.77;;;;;;;6.23;94.50;95261.75;5114342;28;20456;-78
2022/01/01 03:14:42;;;;;;;18.47;13.80;;;;;;;6.15;95.54;95244.00;5114338;28;20931;-78
2022/01/01 03:17:10;;;;;;;20.60;14.80;;;;;;;6.19;95.00;95242.88;5114244;28;20444;-78
2022/01/01 03:19:37;;;;;;;18.93;12.10;;;;;;;6.15;95.79;95244.00;5114277;28;20520;-78
2022/01/01 03:22:05;;;;;;;17.40;12.17;;;;;;;6.16;96.12;95237.84;5114064;28;20444;-79
2022/01/01 03:24:32;;;;;;;16.77;12.03;;;;;;;6.15;95.69;95230.97;5113958;28;20463;-78
2022/01/01 03:27:00;;;;;;;16.60;12.60;;;;;;;6.09;96.57;95230.50;5114409;28;20440;-78
2022/01/01 03:29:30;;;;;;;16.07;12.77;;;;;;;6.07;96.41;95240.16;5114314;28;20850;-78
2022/01/01 03:31:57;;;;;;;17.10;11.90;;;;;;;6.06;96.18;95241.09;5114367;28;20444;-78
2022/01/01 03:34:24;;;;;;;16.00;11.83;;;;;;;6.06;97.10;95236.72;5114089;28;20444;-79
2022/01/01 03:36:51;;;;;;;15.93;11.47;;;;;;;5.94;97.05;95229.69;5113905;28;20444;-79
2022/01/01 03:39:18;;;;;;;19.73;14.97;;;;;;;5.99;97.30;95229.38;5114006;28;20503;-79
2022/01/01 03:41:45;;;;;;;17.77;12.30;;;;;;;5.73;97.94;95226.56;5114375;28;20440;-78
2022/01/01 03:44:12;;;;;;;18.90;14.87;;;;;;;5.81;98.14;95241.75;5114180;28;20539;-78
2022/01/01 03:46:40;;;;;;;20.50;14.77;;;;;;;5.83;97.89;95232.06;5077930;28;20437;-78
2022/01/01 03:49:07;;;;;;;17.53;13.10;;;;;;;5.94;97.85;95249.66;5114307;28;20492;-79
2022/01/01 03:51:34;;;;;;;14.93;11.73;;;;;;;5.98;98.71;95252.00;5114187;28;20460;-79
2022/01/01 03:54:01;;;;;;;15.95;12.90;;;;;;;6.11;98.94;95242.50;5113373;28;20434;-79
2022/01/01 03:56:28;;;;;;;17.20;12.67;;;;;;;6.12;97.72;95249.41;5113663;28;20837;-78
2022/01/01 03:58:55;;;;;;;18.20;12.77;;;;;;;6.17;97.72;95247.34;5113801;28;20425;-79
2022/01/01 04:01:22;;;;;;;14.43;11.37;;;;;;;6.18;97.33;95249.00;5062082;28;20443;-79
2022/01/01 04:03:50;;;;;;;18.43;12.00;;;;;;;6.22;97.91;95234.84;5113582;28;20447;-79
2022/01/01 04:06:17;;;;;;;15.30;11.90;;;;;;;6.17;97.37;95212.63;5113973;28;20450;-79
2022/01/01 04:08:43;;;;;;;15.00;11.80;;;;;;;6.21;97.88;95225.38;5062472;28;20441;-79
2022/01/01 04:11:10;;;;;;;22.80;10.80;;;;;;;6.24;97.86;95215.69;5113593;28;20485;-79
2022/01/01 04:13:37;;;;;;;13.17;10.53;;;;;;;6.26;98.07;95201.63;5061345;28;20439;-78
2022/01/01 04:16:06;;;;;;;13.27;10.70;;;;;;;6.21;97.28;95207.13;5113674;28;21024;-78
2022/01/01 04:18:38;;;;;;;21.70;13.37;;;;;;;6.22;97.96;95216.63;5113601;28;20478;-79
2022/01/01 04:21:08;;;;;;;14.57;11.93;;;;;;;6.20;96.65;95213.28;5077971;28;20496;-79
2022/01/01 04:23:37;;;;;;;17.00;12.07;;;;;;;6.22;97.70;95211.41;5113723;28;20445;-79
2022/01/01 04:26:05;;;;;;;19.10;12.60;;;;;;;6.22;97.53;95202.75;5115300;28;20456;-79
2022/01/01 04:28:32;;;;;;;18.43;12.00;;;;;;;6.32;97.94;95197.78;5117327;28;20448;-79
2022/01/01 04:31:02;;;;;;;16.20;11.83;;;;;;;6.34;97.04;95201.13;5117544;28;20480;-79
2022/01/01 04:33:29;;;;;;;16.40;12.47;;;;;;;6.38;97.51;95194.81;5117567;28;20946;-78
2022/01/01 04:35:56;;;;;;;16.10;11.63;;;;;;;6.40;96.90;95198.16;5117893;28;20451;-79
2022/01/01 04:38:35;;;;;;;19.00;12.63;;;;;;;6.43;96.21;95192.75;5064980;28;20447;-79
2022/01/01 04:41:03;;;;;;;14.20;11.60;;;;;;;6.43;96.33;95190.16;5117755;28;20477;-79
2022/01/01 04:43:30;;;;;;;15.67;11.40;;;;;;;6.38;96.70;95179.19;5117332;28;20458;-79
2022/01/01 04:45:57;;;;;;;15.50;11.27;;;;;;;6.38;96.73;95181.78;5117696;28;21001;-79
2022/01/01 04:48:24;;;;;;;15.57;10.63;;;;;;;6.34;96.34;95175.06;5117472;28;20530;-79
2022/01/01 04:50:51;;;;;;;16.40;11.30;;;;;;;6.34;96.57;95178.50;5116886;28;20487;-79
2022/01/01 04:53:21;;;;;;;14.43;11.37;;;;;;;6.36;97.17;95186.22;5116573;28;20452;-78
2022/01/01 04:55:50;;;;;;;18.07;12.93;;;;;;;6.32;96.34;95183.00;5117084;28;20509;-78
2022/01/01 04:58:17;;;;;;;16.70;13.07;;;;;;;6.28;96.90;95185.88;5117329;28;20455;-78
2022/01/01 05:00:44;;;;;;;20.43;13.50;;;;;;;6.28;97.66;95183.28;5116988;28;20449;-78
2022/01/01 05:03:13;;;;;;;16.70;12.77;;;;;;;6.29;96.89;95180.56;5117063;28;20471;-78
2022/01/01 05:05:40;;;;;;;19.43;14.13;;;;;;;6.30;97.22;95187.47;5116494;28;20470;-78
2022/01/01 05:08:07;;;;;;;17.67;14.20;;;;;;;6.22;97.13;95182.75;5116833;28;20522;-78
2022/01/01 05:10:34;;;;;;;17.70;13.53;;;;;;;6.24;97.73;95192.22;5116489;28;20483;-78
2022/01/01 05:13:03;;;;;;;19.60;14.27;;;;;;;5.96;98.45;95188.75;5116302;28;20954;-79
2022/01/01 05:15:30;;;;;;;17.27;13.20;;;;;;;6.04;98.03;95199.50;5063854;28;20455;-78
2022/01/01 05:17:57;;;;;;;19.50;15.30;;;;;;;6.10;98.70;95214.78;5116648;28;20523;-78
2022/01/01 05:20:24;;;;;;;20.90;15.70;;;;;;;6.13;98.54;95222.41;5116098;28;20527;-78
2022/01/01 05:22:50;;;;;;;24.07;17.03;;;;;;;6.19;98.35;95229.84;5116295;28;20988;-78
2022/01/01 05:25:17;;;;;;;21.50;15.93;;;;;;;6.24;99.00;95236.53;5115998;28;20441;-79
2022/01/01 05:27:44;;;;;;;22.50;16.40;;;;;;;6.26;99.11;95235.50;5116326;28;20964;-79
2022/01/01 05:30:13;;;;;;;23.53;15.30;;;;;;;6.27;98.57;95231.97;5116226;28;20484;-78
2022/01/01 05:32:40;;;;;;;20.93;15.70;;;;;;;6.32;98.18;95240.31;5116725;28;20449;-78
2022/01/01 05:35:08;;;;;;;23.37;14.77;;;;;;;6.39;98.26;95240.78;5116215;28;20451;-78
2022/01/01 05:37:35;;;;;;;22.03;14.87;;;;;;;6.39;98.57;95235.59;5062115;28;20437;-78
2022/01/01 05:40:02;;;;;;;20.10;14.10;;;;;;;6.48;98.50;95240.22;5116770;28;20457;-78
2022/01/01 05:42:28;;;;;;;17.73;13.80;;;;;;;6.51;97.61;95250.44;5116845;28;20444;-79
2022/01/01 05:44:55;;;;;;;20.00;15.90;;;;;;;6.54;97.33;95234.59;5080305;28;20434;-78
2022/01/01 05:47:24;;;;;;;36.17;23.97;;;;;;;6.56;97.38;95245.75;5115842;28;20453;-78
2022/01/01 05:49:50;;;;;;;36.20;27.77;;;;;;;6.58;97.89;95249.09;5115871;28;20480;-78
2022/01/01 05:52:17;;;;;;;32.30;24.27;;;;;;;6.57;97.20;95249.22;5115977;28;20453;-78
2022/01/01 05:54:44;;;;;;;36.67;23.60;;;;;;;6.58;97.13;95261.31;5115959;28;20468;-79
2022/01/01 05:57:11;;;;;;;26.27;21.27;;;;;;;6.59;97.65;95250.78;5115459;28;20443;-78
2022/01/01 05:59:41;;;;;;;26.33;19.93;;;;;;;6.61;97.43;95241.09;5115969;28;20445;-78
2022/01/01 06:02:08;;;;;;;22.30;16.30;;;;;;;6.61;97.03;95256.72;5115967;28;20440;-79
2022/01/01 06:04:37;;;;;;;17.30;12.83;;;;;;;6.63;96.92;95246.19;5115789;28;20457;-79
2022/01/01 06:07:04;;;;;;;36.47;20.37;;;;;;;6.63;95.53;95239.22;5115464;28;20806;-79
2022/01/01 06:09:31;;;;;;;21.80;14.57;;;;;;;6.60;96.06;95230.75;5115224;28;20447;-79
2022/01/01 06:11:58;;;;;;;21.57;13.37;;;;;;;6.56;96.02;95227.50;5115488;28;20442;-79
2022/01/01 06:14:25;;;;;;;20.57;12.90;;;;;;;6.48;95.89;95224.56;5115447;28;20445;-79
2022/01/01 06:16:52;;;;;;;15.87;12.10;;;;;;;6.44;95.94;95234.34;5115712;28;20449;-79
2022/01/01 06:19:19;;;;;;;17.10;11.47;;;;;;;6.38;96.43;95226.09;5115282;28;20464;-79
2022/01/01 06:21:47;;;;;;;16.57;11.47;;;;;;;6.37;97.41;95227.03;5063186;28;20800;-79
2022/01/01 06:24:14;;;;;;;16.90;10.73;;;;;;;6.35;97.80;95232.31;5115558;28;20455;-79
2022/01/01 06:26:41;;;;;;;15.00;10.83;;;;;;;6.37;98.19;95233.06;5114961;28;20446;-79
2022/01/01 06:29:08;;;;;;;14.97;10.33;;;;;;;6.43;97.73;95231.84;5114961;28;20445;-79
2022/01/01 06:31:35;;;;;;;18.73;11.40;;;;;;;6.47;98.04;95235.94;5062549;28;20503;-79
2022/01/01 06:34:02;;;;;;;19.07;11.13;;;;;;;6.53;98.13;95240.75;5115561;28;20441;-79
2022/01/01 06:36:28;;;;;;;14.30;11.00;;;;;;;6.55;98.42;95228.44;5115288;28;20452;-78
2022/01/01 06:38:57;;;;;;;14.90;11.10;;;;;;;6.35;99.85;95239.28;5062493;28;20452;-79
2022/01/01 06:41:24;;;;;;;15.50;12.60;;;;;;;6.43;99.11;95239.66;5114697;28;20539;-79
2022/01/01 06:43:52;;;;;;;20.13;14.03;;;;;;;6.48;98.60;95248.88;5115558;28;20931;-79
2022/01/01 06:46:19;;;;;;;21.30;11.80;;;;;;;6.51;99.17;95261.69;5115284;28;20444;-79
2022/01/01 06:48:46;;;;;;;14.60;11.43;;;;;;;6.53;99.88;95248.56;5114763;28;20441;-80
2022/01/01 06:51:12;;;;;;;14.47;11.53;;;;;;;6.61;99.99;95272.38;5114562;28;20991;-80
2022/01/01 06:53:39;;;;;;;16.77;12.33;;;;;;;6.67;99.97;95269.41;5115567;28;20807;-80
2022/01/01 06:56:08;;;;;;;11.30;10.20;;;;;;;6.74;100.00;95268.06;5114902;28;20817;-79
2022/01/01 06:58:35;;;;;;;15.70;12.13;;;;;;;6.79;100.00;95276.44;5114344;28;20444;-78
2022/01/01 07:01:03;;;;;;;19.23;13.57;;;;;;;6.72;100.00;95276.94;5114464;28;20827;-78
2022/01/01 07:03:30;;;;;;;14.40;11.37;;;;;;;6.89;100.00;95270.63;5061638;28;20525;-78
2022/01/01 07:05:57;;;;;;;13.53;11.27;;;;;;;7.01;100.00;95269.84;5114369;28;20927;-78
2022/01/01 07:08:23;;;;;;;19.83;11.30;;;;;;;7.07;100.00;95262.47;5114319;28;20450;-79
2022/01/01 07:10:50;;;;;;;13.93;11.10;;;;;;;7.19;99.72;95258.19;5114243;28;20485;-78
2022/01/01 07:13:19;;;;;;;12.70;10.40;;;;;;;7.28;100.00;95252.41;5114483;28;20442;-78
2022/01/01 07:15:45;;;;;;;17.00;9.33;;;;;;;7.39;99.53;95262.94;5114308;28;20442;-79
2022/01/01 07:18:12;;;;;;;16.50;10.13;;;;;;;7.54;99.91;95273.31;5114284;28;20448;-79
2022/01/01 07:20:39;;;;;;;13.37;11.03;;;;;;;7.63;99.36;95270.09;5114110;28;20451;-79
2022/01/01 07:23:06;;;;;;;16.00;11.97;;;;;;;7.73;99.18;95279.81;5113888;28;20470;-80
2022/01/01 07:25:33;;;;;;;13.47;10.20;;;;;;;7.84;99.02;95286.09;5114028;28;20519;-78
2022/01/01 07:28:00;;;;;;;16.30;9.53;;;;;;;7.97;98.43;95287.75;5114227;28;20446;-78
2022/01/01 07:30:29;;;;;;;19.03;12.10;;;;;;;8.00;97.92;95271.88;5114401;28;20492;-78
2022/01/01 07:32:56;;;;;;;16.53;11.93;;;;;;;8.15;97.62;95290.91;5114194;28;20435;-78
2022/01/01 07:35:23;;;;;;;20.70;11.37;;;;;;;8.26;97.21;95277.06;5114548;28;20449;-78
2022/01/01 07:37:52;;;;;;;14.93;11.10;;;;;;;8.35;96.73;95285.16;5114519;28;20448;-78
2022/01/01 07:40:20;;;;;;;14.80;10.80;;;;;;;8.25;96.01;95270.19;5113677;28;20817;-78
2022/01/01 07:42:48;;;;;;;21.43;11.97;;;;;;;8.23;95.83;95267.69;5114752;28;20465;-79
2022/01/01 07:45:15;;;;;;;16.53;12.23;;;;;;;8.28;96.38;95270.81;5113513;28;20451;-78
2022/01/01 07:47:43;;;;;;;18.40;12.87;;;;;;;8.37;96.67;95278.03;5077976;28;20447;-79
2022/01/01 07:50:11;;;;;;;16.20;13.07;;;;;;;8.48;96.93;95281.69;5113907;28;20434;-79
2022/01/01 07:52:38;;;;;;;21.73;14.60;;;;;;;8.57;96.39;95287.09;5114137;28;20450;-79
2022/01/01 07:55:06;;;;;;;26.17;17.17;;;;;;;8.68;95.67;95284.56;5113230;28;21000;-79
2022/01/01 07:57:33;;;;;;;27.57;16.97;;;;;;;8.79;95.44;95296.88;5114045;28;20428;-79
2022/01/01 08:00:00;;;;;;;32.87;17.90;;;;;;;8.90;95.67;95283.84;5113358;28;20947;-79
2022/01/01 08:02:27;;;;;;;30.43;17.93;;;;;;;9.03;95.15;95277.75;5113279;28;20454;-79
2022/01/01 08:04:55;;;;;;;24.60;15.47;;;;;;;9.03;94.58;95267.28;5113843;28;20452;-80
2022/01/01 08:07:22;;;;;;;23.90;15.77;;;;;;;9.19;95.77;95263.41;5113419;28;20445;-77
2022/01/01 08:09:52;;;;;;;22.60;17.27;;;;;;;9.28;95.30;95268.00;5113616;28;20808;-79
2022/01/01 08:12:19;;;;;;;30.20;17.37;;;;;;;9.35;95.72;95264.91;5113496;28;20474;-79
2022/01/01 08:14:46;;;;;;;23.47;17.43;;;;;;;9.46;96.21;95262.31;5113162;28;20929;-79
2022/01/01 08:17:13;;;;;;;22.33;16.43;;;;;;;9.52;96.80;95264.47;5113089;28;20960;-79
2022/01/01 08:19:39;;;;;;;19.30;14.63;;;;;;;9.63;96.01;95272.41;5113417;28;20455;-79
2022/01/01 08:22:08;;;;;;;20.57;14.50;;;;;;;9.69;96.15;95269.31;5113056;28;20450;-79
2022/01/01 08:24:35;;;;;;;19.77;14.03;;;;;;;9.55;95.57;95261.66;5113699;28;20940;-79
2022/01/01 08:27:02;;;;;;;21.83;15.53;;;;;;;9.76;95.75;95272.28;5112823;28;20797;-78
2022/01/01 08:29:29;;;;;;;27.70;17.20;;;;;;;9.86;95.28;95274.13;5113570;28;20453;-78
2022/01/01 08:31:57;;;;;;;22.90;17.10;;;;;;;9.94;94.72;95282.22;5113554;28;20511;-78
2022/01/01 08:34:24;;;;;;;23.47;18.03;;;;;;;9.81;95.89;95273.63;5113710;28;20450;-79
2022/01/01 08:36:51;;;;;;;22.90;14.30;;;;;;;9.74;94.47;95275.03;5113143;28;20443;-79
2022/01/01 08:39:20;;;;;;;16.43;12.60;;;;;;;9.76;95.66;95272.28;5113005;28;20957;-80
2022/01/01 08:41:47;;;;;;;20.90;14.13;;;;;;;9.79;94.70;95267.66;5113152;28;20450;-78
2022/01/01 08:44:15;;;;;;;18.70;14.13;;;;;;;9.78;94.88;95263.38;5077512;28;20435;-79
2022/01/01 08:46:42;;;;;;;21.60;16.30;;;;;;;9.79;96.32;95266.81;5112724;28;20439;-79
2022/01/01 08:49:10;;;;;;;23.00;15.13;;;;;;;9.93;96.02;95274.50;5113014;28;20462;-79
2022/01/01 08:51:41;;;;;;;23.13;17.03;;;;;;;10.13;94.86;95279.06;5112966;28;20840;-79
2022/01/01 08:54:08;;;;;;;23.03;13.17;;;;;;;10.19;93.34;95277.75;5113489;28;20439;-79
2022/01/01 08:56:37;;;;;;;17.80;13.90;;;;;;;10.33;94.31;95287.19;5113195;28;20469;-79
2022/01/01 08:59:04;;;;;;;23.23;16.33;;;;;;;10.50;94.09;95287.56;5113521;28;20928;-80
2022/01/01 09:01:31;;;;;;;20.37;13.87;;;;;;;10.57;92.38;95287.91;5113730;28;20431;-79
2022/01/01 09:03:58;;;;;;;20.80;15.00;;;;;;;10.73;92.71;95282.28;5113197;28;20441;-79
2022/01/01 09:06:25;;;;;;;24.47;19.00;;;;;;;10.90;92.40;95294.91;5112763;28;20516;-79
2022/01/01 09:08:52;;;;;;;27.73;19.70;;;;;;;10.94;92.03;95292.84;5113339;28;20812;-80
2022/01/01 09:11:19;;;;;;;23.37;14.83;;;;;;;11.10;91.35;95290.69;5112981;28;20486;-78
2022/01/01 09:13:47;;;;;;;11.60;4.70;;;;;;;11.39;87.31;95304.94;5116608;28;20436;-78
2022/01/01 09:16:16;;;;;;;5.67;4.07;;;;;;;11.60;85.75;95299.72;5116987;28;20547;-79
2022/01/01 09:18:45;;;;;;;5.77;3.50;;;;;;;11.82;85.57;95298.78;5117259;28;20457;-79
2022/01/01 09:21:12;;;;;;;5.20;4.27;;;;;;;11.93;84.31;95304.00;5117402;28;20450;-78
2022/01/01 09:23:39;;;;;;;5.60;4.37;;;;;;;12.02;82.92;95307.66;5116538;28;20499;-79
2022/01/01 09:26:06;;;;;;;5.47;4.70;;;;;;;12.11;83.40;95306.88;5116655;28;20554;-78
2022/01/01 09:28:34;;;;;;;9.67;3.90;;;;;;;12.27;82.25;95307.25;5116481;28;20781;-78
2022/01/01 09:31:03;;;;;;;10.50;5.00;;;;;;;12.38;81.89;95314.22;5116811;28;20478;-79
2022/01/01 09:33:31;;;;;;;6.67;4.17;;;;;;;12.48;81.00;95304.59;5116153;28;20937;-79
2022/01/01 09:35:58;;;;;;;6.90;4.80;;;;;;;12.66;80.77;95315.34;5116629;28;20488;-79
2022/01/01 09:38:25;;;;;;;6.87;4.90;;;;;;;12.74;79.83;95310.25;5080453;28;20804;-79
2022/01/01 09:40:54;;;;;;;6.13;4.07;;;;;;;12.90;79.50;95307.94;5116815;28;20454;-79
2022/01/01 09:43:22;;;;;;;5.27;4.00;;;;;;;13.06;77.56;95320.63;5116763;28;20443;-79
2022/01/01 09:45:50;;;;;;;14.70;5.03;;;;;;;13.24;77.40;95326.09;5116921;28;21002;-78
2022/01/01 09:48:21;;;;;;;7.33;4.80;;;;;;;13.39;75.78;95321.28;5116342;28;20450;-79
2022/01/01 09:50:49;;;;;;;3.57;3.17;;;;;;;13.43;73.63;95328.75;5116507;28;20933;-78
2022/01/01 09:53:17;;;;;;;6.37;4.60;;;;;;;13.40;73.85;95326.41;5116518;28;20442;-78
2022/01/01 09:55:44;;;;;;;7.77;5.83;;;;;;;13.38;74.79;95328.34;5116619;28;21023;-77
2022/01/01 09:58:11;;;;;;;15.83;6.20;;;;;;;13.38;75.53;95324.88;5115615;28;20445;-78
2022/01/01 10:00:38;;;;;;;12.70;5.47;;;;;;;13.34;74.40;95303.22;5116298;28;20933;-78
2022/01/01 10:03:05;;;;;;;4.40;3.83;;;;;;;13.26;73.46;95318.88;5116358;28;20439;-79
2022/01/01 10:05:33;;;;;;;8.00;4.83;;;;;;;13.12;73.32;95327.97;5116522;28;20445;-78
2022/01/01 10:08:01;;;;;;;9.90;4.90;;;;;;;13.07;73.96;95332.00;5115886;28;20925;-78
2022/01/01 10:10:28;;;;;;;5.13;4.60;;;;;;;13.00;74.47;95331.66;5116177;28;20443;-79
2022/01/01 10:12:55;;;;;;;5.93;4.63;;;;;;;12.97;75.30;95334.56;5115739;28;20846;-79
2022/01/01 10:15:22;;;;;;;7.40;5.40;;;;;;;12.94;75.19;95324.31;5115088;28;20439;-79
2022/01/01 10:17:49;;;;;;;3.80;3.50;;;;;;;12.87;74.38;95326.66;5116064;28;20945;-78
2022/01/01 10:20:16;;;;;;;11.50;6.60;;;;;;;12.89;75.34;95329.97;5115758;28;20447;-78
2022/01/01 10:22:49;;;;;;;5.33;4.03;;;;;;;12.88;75.22;95323.03;5115147;28;20474;-78
2022/01/01 10:28:08;;;;;;;4.30;3.43;;;;;;;12.75;75.41;95325.09;5033634;28;20430;-78
2022/01/01 10:30:38;;;;;;;8.80;4.50;;;;;;;12.73;76.12;95323.56;5032423;28;20545;-79
2022/01/01 10:33:10;;;;;;;3.90;3.60;;;;;;;12.69;76.21;95323.78;5032107;28;20516;-78
2022/01/01 10:35:39;;;;;;;8.90;5.57;;;;;;;12.76;76.07;95305.69;4937045;28;20438;-78
2022/01/01 10:38:11;;;;;;;12.50;7.27;;;;;;;12.93;75.99;95306.84;5032650;28;20446;-79
2022/01/01 10:40:38;;;;;;;10.40;7.60;;;;;;;12.99;76.93;95306.28;5032702;28;20446;-78
2022/01/01 10:43:05;;;;;;;7.23;5.53;;;;;;;13.01;76.63;95304.38;5032963;28;20458;-79
2022/01/01 10:45:37;;;;;;;6.33;5.03;;;;;;;12.98;76.18;95304.63;5032545;28;20968;-78
2022/01/01 10:48:17;;;;;;;8.63;6.30;;;;;;;13.03;76.16;95300.66;5032212;28;20450;-79
2022/01/01 10:50:45;;;;;;;9.63;5.73;;;;;;;13.03;75.73;95289.28;5031638;28;20523;-78
2022/01/01 10:53:16;;;;;;;8.00;5.40;;;;;;;13.12;75.90;95292.88;5031975;28;21012;-79
2022/01/01 10:55:50;;;;;;;6.67;5.67;;;;;;;13.20;74.83;95295.72;4982929;28;20564;-80
2022/01/01 10:58:22;;;;;;;6.63;5.43;;;;;;;13.26;73.58;95292.53;5032049;28;20451;-79
2022/01/01 11:00:51;;;;;;;6.03;4.77;;;;;;;13.33;74.25;95276.03;4998920;28;21057;-79
2022/01/01 11:03:20;;;;;;;16.37;5.37;;;;;;;13.39;72.57;95273.81;5031416;28;20447;-79
2022/01/01 11:05:48;;;;;;;5.67;4.80;;;;;;;13.51;72.73;95264.81;5097269;28;20887;-80
2022/01/01 11:08:17;;;;;;;5.10;4.70;;;;;;;13.54;72.21;95272.44;5114337;28;20446;-78
2022/01/01 11:10:44;;;;;;;6.53;4.47;;;;;;;13.64;71.50;95262.72;5114551;28;20440;-79
2022/01/01 11:13:11;;;;;;;8.63;5.23;;;;;;;13.71;70.98;95270.91;5114161;28;20489;-78
2022/01/01 11:15:39;;;;;;;7.10;6.20;;;;;;;13.74;70.47;95281.19;5114723;28;21012;-79
2022/01/01 11:18:07;;;;;;;9.50;7.30;;;;;;;13.79;69.91;95276.31;5062072;28;20435;-78
2022/01/01 11:20:35;;;;;;;14.30;9.07;;;;;;;13.84;70.46;95277.53;5079069;28;20447;-79
2022/01/01 11:23:07;;;;;;;10.70;7.00;;;;;;;13.85;69.66;95281.03;5114485;28;20953;-80
2022/01/01 11:25:37;;;;;;;12.33;7.70;;;;;;;13.94;70.38;95282.84;5114771;28;20451;-79
2022/01/01 11:28:08;;;;;;;9.53;5.63;;;;;;;14.05;69.91;95287.13;5114615;28;20446;-78
2022/01/01 11:30:38;;;;;;;10.43;5.40;;;;;;;14.10;69.63;95284.88;5114345;28;20438;-80
2022/01/01 11:33:08;;;;;;;6.93;5.20;;;;;;;14.13;69.32;95274.88;5114120;28;20494;-79